createdAt,value
2023-01-29T00:00:19.994Z,3.10
2023-01-29T00:02:48.731Z,3.00
2023-01-29T00:05:27.586Z,3.00
2023-01-29T00:07:57.709Z,3.00
2023-01-29T00:10:26.762Z,3.00
2023-01-29T00:12:56.801Z,3.00
2023-01-29T00:15:25.399Z,3.00
2023-01-29T00:17:54.126Z,3.00
2023-01-29T00:20:22.754Z,3.00
2023-01-29T00:22:51.346Z,3.00
2023-01-29T00:25:19.953Z,3.00
2023-01-29T00:27:48.620Z,3.00
2023-01-29T00:30:20.445Z,3.00
2023-01-29T00:32:49.153Z,2.90
2023-01-29T00:35:17.879Z,2.90
2023-01-29T00:37:46.604Z,3.00
2023-01-29T00:40:15.747Z,3.00
2023-01-29T00:43:03.468Z,3.00
2023-01-29T00:45:33.510Z,3.00
2023-01-29T00:48:02.188Z,3.00
2023-01-29T00:50:31.309Z,3.00
2023-01-29T00:52:59.920Z,3.00
2023-01-29T00:55:28.575Z,3.00
2023-01-29T00:57:57.198Z,3.00
2023-01-29T01:00:26.059Z,3.00
2023-01-29T01:03:07.164Z,3.00
2023-01-29T01:05:37.002Z,3.10
2023-01-29T01:08:26.865Z,3.10
2023-01-29T01:11:02.969Z,3.10
2023-01-29T01:13:33.437Z,3.10
2023-01-29T01:16:02.440Z,3.10
2023-01-29T01:18:32.645Z,3.10
2023-01-29T01:21:01.263Z,3.10
2023-01-29T01:23:30.129Z,3.10
2023-01-29T01:25:59.096Z,3.10
2023-01-29T01:28:27.951Z,3.10
2023-01-29T01:30:56.740Z,3.10
2023-01-29T01:33:25.483Z,3.10
2023-01-29T01:35:55.626Z,3.10
2023-01-29T01:38:24.268Z,3.10
2023-01-29T01:40:52.906Z,3.10
2023-01-29T01:43:21.507Z,3.10
2023-01-29T01:45:50.241Z,3.10
2023-01-29T01:48:23.115Z,3.10
2023-01-29T01:50:54.287Z,3.10
2023-01-29T01:53:27.802Z,3.10
2023-01-29T01:56:03.234Z,3.10
2023-01-29T01:58:35.961Z,3.10
2023-01-29T02:01:07.918Z,3.00
2023-01-29T02:03:59.958Z,3.00
2023-01-29T02:06:46.394Z,3.00
2023-01-29T02:09:35.516Z,3.00
2023-01-29T02:12:06.563Z,3.00
2023-01-29T02:14:40.250Z,3.00
2023-01-29T02:17:11.013Z,3.00
2023-01-29T02:19:48.595Z,2.90
2023-01-29T02:22:43.196Z,2.90
2023-01-29T02:25:39.786Z,2.90
2023-01-29T02:28:23.225Z,2.90
2023-01-29T02:31:01.550Z,3.00
2023-01-29T02:33:42.762Z,2.90
2023-01-29T02:36:20.822Z,2.90
2023-01-29T02:39:01.152Z,2.90
2023-01-29T02:41:36.908Z,2.90
2023-01-29T02:44:14.722Z,2.90
2023-01-29T02:46:48.207Z,2.90
2023-01-29T02:49:26.132Z,2.90
2023-01-29T02:52:02.890Z,2.90
2023-01-29T02:54:40.826Z,2.90
2023-01-29T02:57:16.335Z,2.90
2023-01-29T02:59:51.827Z,2.80
2023-01-29T03:02:25.222Z,2.90
2023-01-29T03:05:01.091Z,2.90
2023-01-29T03:07:42.945Z,2.80
2023-01-29T03:10:17.118Z,2.90
2023-01-29T03:12:49.380Z,2.90
2023-01-29T03:15:25.280Z,2.90
2023-01-29T03:17:57.887Z,2.90
2023-01-29T03:20:36.404Z,2.80
2023-01-29T03:23:10.382Z,2.90
2023-01-29T03:25:59.299Z,2.90
2023-01-29T03:28:48.311Z,2.90
2023-01-29T03:31:40.570Z,2.90
2023-01-29T03:34:16.638Z,2.90
2023-01-29T03:36:55.836Z,2.90
2023-01-29T03:39:28.710Z,2.90
2023-01-29T03:42:01.827Z,2.90
2023-01-29T03:44:37.656Z,3.00
2023-01-29T03:47:18.254Z,2.90
2023-01-29T03:49:58.750Z,2.90
2023-01-29T03:52:35.065Z,2.90
2023-01-29T03:55:10.984Z,2.90
2023-01-29T03:57:42.640Z,2.90
2023-01-29T04:00:18.335Z,3.00
2023-01-29T04:02:56.557Z,2.90
2023-01-29T04:05:30.301Z,2.90
2023-01-29T04:08:06.373Z,2.90
2023-01-29T04:10:37.751Z,2.90
2023-01-29T04:13:10.360Z,2.90
2023-01-29T04:15:47.184Z,2.90
2023-01-29T04:18:17.466Z,2.90
2023-01-29T04:20:46.547Z,2.90
2023-01-29T04:23:23.457Z,2.90
2023-01-29T04:26:08.089Z,2.90
2023-01-29T04:28:52.919Z,2.80
2023-01-29T04:31:26.802Z,2.80
2023-01-29T04:34:05.662Z,2.80
2023-01-29T04:36:41.293Z,2.80
2023-01-29T04:39:19.200Z,2.80
2023-01-29T04:41:54.452Z,2.80
2023-01-29T04:44:30.150Z,2.80
2023-01-29T04:47:06.665Z,2.80
2023-01-29T04:49:43.664Z,2.80
2023-01-29T04:52:21.254Z,2.80
2023-01-29T04:54:59.932Z,2.80
2023-01-29T04:57:35.557Z,2.80
2023-01-29T05:00:12.483Z,2.70
2023-01-29T05:02:42.803Z,2.70
2023-01-29T05:05:15.636Z,2.70
2023-01-29T05:07:45.228Z,2.70
2023-01-29T05:10:17.293Z,2.70
2023-01-29T05:12:50.000Z,2.70
2023-01-29T05:15:23.267Z,2.70
2023-01-29T05:17:53.842Z,2.70
2023-01-29T05:20:24.079Z,2.70
2023-01-29T05:22:52.946Z,2.70
2023-01-29T05:25:24.294Z,2.70
2023-01-29T05:28:05.238Z,2.60
2023-01-29T05:30:35.677Z,2.60
2023-01-29T05:33:05.272Z,2.60
2023-01-29T05:35:35.307Z,2.60
2023-01-29T05:38:05.035Z,2.60
2023-01-29T05:40:33.668Z,2.60
2023-01-29T05:43:02.347Z,2.50
2023-01-29T05:45:31.029Z,2.50
2023-01-29T05:48:00.148Z,2.50
2023-01-29T05:50:29.158Z,2.50
2023-01-29T05:52:59.785Z,2.50
2023-01-29T05:55:29.508Z,2.50
2023-01-29T05:57:58.123Z,2.50
2023-01-29T06:00:26.862Z,2.50
2023-01-29T06:02:56.550Z,2.50
2023-01-29T06:05:25.247Z,2.50
2023-01-29T06:07:53.919Z,2.50
2023-01-29T06:10:23.889Z,2.50
2023-01-29T06:12:52.588Z,2.50
2023-01-29T06:15:21.240Z,2.50
2023-01-29T06:17:49.904Z,2.50
2023-01-29T06:20:19.149Z,2.50
2023-01-29T06:22:48.154Z,2.50
2023-01-29T06:25:17.065Z,2.50
2023-01-29T06:27:47.028Z,2.50
2023-01-29T06:30:16.497Z,2.50
2023-01-29T06:32:45.281Z,2.60
2023-01-29T06:35:13.961Z,2.60
2023-01-29T06:37:42.668Z,2.60
2023-01-29T06:40:12.518Z,2.60
2023-01-29T06:42:41.150Z,2.60
2023-01-29T06:45:12.551Z,2.60
2023-01-29T06:47:41.108Z,2.60
2023-01-29T06:50:11.031Z,2.60
2023-01-29T06:52:39.660Z,2.60
2023-01-29T06:55:09.309Z,2.60
2023-01-29T06:57:37.928Z,2.60
2023-01-29T07:00:07.650Z,2.60
2023-01-29T07:02:37.836Z,2.60
2023-01-29T07:05:07.022Z,2.60
2023-01-29T07:07:37.700Z,2.60
2023-01-29T07:10:07.541Z,2.60
2023-01-29T07:12:36.465Z,2.60
2023-01-29T07:15:05.669Z,2.60
2023-01-29T07:17:34.381Z,2.60
2023-01-29T07:20:04.723Z,2.60
2023-01-29T07:22:33.356Z,2.60
2023-01-29T07:25:01.990Z,2.60
2023-01-29T07:27:30.593Z,2.60
2023-01-29T07:29:59.180Z,2.60
2023-01-29T07:32:29.584Z,2.70
2023-01-29T07:34:58.187Z,2.60
2023-01-29T07:37:28.242Z,2.70
2023-01-29T07:39:56.915Z,2.70
2023-01-29T07:42:25.641Z,2.70
2023-01-29T07:44:54.292Z,2.70
2023-01-29T07:47:22.977Z,2.70
2023-01-29T07:49:51.593Z,2.70
2023-01-29T07:52:22.143Z,2.70
2023-01-29T07:54:52.596Z,2.70
2023-01-29T07:57:21.238Z,2.70
2023-01-29T07:59:49.919Z,2.70
2023-01-29T08:02:18.915Z,2.80
2023-01-29T08:04:47.654Z,2.80
2023-01-29T08:07:16.377Z,2.90
2023-01-29T08:09:45.772Z,2.80
2023-01-29T08:12:17.307Z,2.80
2023-01-29T08:14:46.031Z,2.80
2023-01-29T08:17:14.736Z,2.80
2023-01-29T08:19:43.448Z,2.80
2023-01-29T08:22:12.140Z,2.80
2023-01-29T08:24:53.420Z,2.90
2023-01-29T08:27:30.226Z,2.90
2023-01-29T08:29:59.064Z,3.00
2023-01-29T08:32:27.780Z,3.00
2023-01-29T08:34:56.378Z,3.00
2023-01-29T08:37:25.112Z,3.10
2023-01-29T08:39:53.742Z,3.10
2023-01-29T08:42:22.510Z,3.20
2023-01-29T08:44:52.536Z,3.20
2023-01-29T08:47:21.169Z,3.30
2023-01-29T08:49:49.848Z,3.30
2023-01-29T08:52:18.526Z,3.30
2023-01-29T08:54:47.361Z,3.30
2023-01-29T08:57:16.214Z,3.30
2023-01-29T08:59:44.901Z,3.40
2023-01-29T09:02:15.076Z,3.40
2023-01-29T09:04:43.917Z,3.50
2023-01-29T09:07:12.528Z,3.50
2023-01-29T09:09:41.181Z,3.50
2023-01-29T09:12:09.889Z,3.50
2023-01-29T09:14:40.417Z,3.50
2023-01-29T09:17:10.952Z,3.50
2023-01-29T09:19:40.970Z,3.60
2023-01-29T09:22:11.755Z,3.70
2023-01-29T09:24:40.588Z,3.70
2023-01-29T09:27:10.120Z,3.70
2023-01-29T09:29:38.945Z,3.70
2023-01-29T09:32:08.678Z,3.70
2023-01-29T09:34:37.563Z,3.80
2023-01-29T09:37:07.724Z,3.80
2023-01-29T09:39:36.642Z,3.80
2023-01-29T09:42:10.853Z,3.80
2023-01-29T09:44:53.051Z,3.90
2023-01-29T09:47:24.805Z,3.90
2023-01-29T09:49:57.729Z,3.90
2023-01-29T09:52:31.367Z,4.00
2023-01-29T09:55:06.405Z,4.00
2023-01-29T09:57:42.355Z,4.00
2023-01-29T10:00:17.545Z,4.10
2023-01-29T10:03:16.586Z,4.10
2023-01-29T10:06:08.823Z,4.10
2023-01-29T10:09:04.099Z,4.10
2023-01-29T10:11:44.107Z,4.20
2023-01-29T10:14:21.079Z,4.20
2023-01-29T10:17:04.512Z,4.20
2023-01-29T10:19:56.052Z,4.20
2023-01-29T10:22:46.234Z,4.30
2023-01-29T10:25:19.504Z,4.30
2023-01-29T10:27:52.432Z,4.30
2023-01-29T10:30:29.426Z,4.40
2023-01-29T10:33:02.673Z,4.40
2023-01-29T10:35:34.913Z,4.40
2023-01-29T10:38:18.059Z,4.40
2023-01-29T10:40:57.204Z,4.40
2023-01-29T10:43:34.149Z,4.50
2023-01-29T10:46:13.121Z,4.40
2023-01-29T10:48:53.892Z,4.40
2023-01-29T10:51:45.838Z,4.40
2023-01-29T10:54:30.192Z,4.40
2023-01-29T10:57:12.462Z,4.40
2023-01-29T11:00:01.123Z,4.40
2023-01-29T11:02:29.995Z,4.40
2023-01-29T11:04:58.655Z,4.40
2023-01-29T11:07:27.761Z,4.50
2023-01-29T11:10:04.578Z,4.50
2023-01-29T11:12:36.746Z,4.50
2023-01-29T11:15:17.186Z,4.50
2023-01-29T11:18:04.984Z,4.50
2023-01-29T11:20:34.613Z,4.50
2023-01-29T11:23:03.373Z,4.50
2023-01-29T11:25:33.638Z,4.50
2023-01-29T11:28:05.425Z,4.50
2023-01-29T11:30:38.833Z,4.50
2023-01-29T11:33:11.107Z,4.50
2023-01-29T11:35:39.753Z,4.50
2023-01-29T11:38:16.518Z,4.50
2023-01-29T11:40:45.859Z,4.50
2023-01-29T11:43:22.094Z,4.50
2023-01-29T11:45:54.623Z,4.50
2023-01-29T11:48:27.084Z,4.60
2023-01-29T11:51:00.655Z,4.60
2023-01-29T11:53:37.888Z,4.60
2023-01-29T11:56:18.087Z,4.60
2023-01-29T11:58:50.285Z,4.60
2023-01-29T12:01:25.948Z,4.60
2023-01-29T12:03:55.641Z,4.60
2023-01-29T12:06:26.201Z,4.50
2023-01-29T12:08:58.140Z,4.50
2023-01-29T12:11:30.117Z,4.60
2023-01-29T12:14:02.049Z,4.60
2023-01-29T12:16:34.594Z,4.50
2023-01-29T12:19:11.764Z,4.60
2023-01-29T12:21:46.591Z,4.60
2023-01-29T12:24:27.297Z,4.60
2023-01-29T12:27:02.519Z,4.50
2023-01-29T12:29:42.395Z,4.50
2023-01-29T12:32:21.205Z,4.60
2023-01-29T12:34:54.844Z,4.50
2023-01-29T12:37:29.923Z,4.60
2023-01-29T12:39:58.621Z,4.60
2023-01-29T12:42:27.586Z,4.60
2023-01-29T12:45:00.742Z,4.60
2023-01-29T12:47:34.809Z,4.50
2023-01-29T12:50:07.849Z,4.60
2023-01-29T12:52:47.963Z,4.50
2023-01-29T12:55:20.413Z,4.50
2023-01-29T12:57:55.003Z,4.50
2023-01-29T13:00:28.404Z,4.40
2023-01-29T13:03:02.188Z,4.40
2023-01-29T13:05:40.203Z,4.40
2023-01-29T13:08:13.364Z,4.40
2023-01-29T13:10:47.119Z,4.40
2023-01-29T13:13:26.968Z,4.30
2023-01-29T13:16:00.148Z,4.30
2023-01-29T13:18:39.801Z,4.20
2023-01-29T13:21:14.219Z,4.30
2023-01-29T13:23:48.358Z,4.20
2023-01-29T13:26:20.935Z,4.20
2023-01-29T13:28:50.587Z,4.20
2023-01-29T13:31:33.188Z,4.20
2023-01-29T13:34:12.425Z,4.20
2023-01-29T13:36:45.222Z,4.20
2023-01-29T13:39:23.976Z,4.20
2023-01-29T13:41:56.200Z,4.30
2023-01-29T13:44:28.111Z,4.30
2023-01-29T13:47:09.609Z,4.20
2023-01-29T13:49:41.543Z,4.30
2023-01-29T13:52:22.523Z,4.30
2023-01-29T13:54:57.443Z,4.30
2023-01-29T13:57:55.993Z,4.30
2023-01-29T14:00:49.899Z,4.40
2023-01-29T14:04:04.964Z,4.50
2023-01-29T14:06:51.491Z,4.50
2023-01-29T14:09:34.550Z,4.60
2023-01-29T14:12:03.692Z,4.60
2023-01-29T14:15:07.124Z,4.60
2023-01-29T14:17:37.912Z,4.60
2023-01-29T14:20:20.413Z,4.60
2023-01-29T14:22:57.669Z,4.60
2023-01-29T14:25:31.746Z,4.70
2023-01-29T14:28:02.574Z,4.70
2023-01-29T14:30:33.522Z,4.60
2023-01-29T14:33:04.003Z,4.60
2023-01-29T14:35:34.734Z,4.60
2023-01-29T14:38:07.169Z,4.60
2023-01-29T14:40:37.645Z,4.60
2023-01-29T14:43:09.487Z,4.60
2023-01-29T14:45:39.867Z,4.60
2023-01-29T14:48:36.607Z,4.60
2023-01-29T14:51:11.905Z,4.60
2023-01-29T14:53:59.735Z,4.50
2023-01-29T14:56:34.672Z,4.50
2023-01-29T14:59:14.947Z,4.60
2023-01-29T15:01:49.332Z,4.60
2023-01-29T15:04:24.201Z,4.60
2023-01-29T15:07:00.495Z,4.60
2023-01-29T15:09:40.827Z,4.50
2023-01-29T15:12:22.688Z,4.60
2023-01-29T15:15:01.803Z,4.60
2023-01-29T15:17:34.123Z,4.50
2023-01-29T15:20:03.147Z,4.60
2023-01-29T15:22:43.522Z,4.60
2023-01-29T15:25:19.187Z,4.50
2023-01-29T15:27:48.739Z,4.50
2023-01-29T15:30:20.715Z,4.50
2023-01-29T15:32:50.138Z,4.40
2023-01-29T15:35:29.133Z,4.40
2023-01-29T15:38:04.349Z,4.40
2023-01-29T15:40:33.218Z,4.40
2023-01-29T15:43:01.852Z,4.40
2023-01-29T15:45:32.489Z,4.40
2023-01-29T15:48:05.583Z,4.40
2023-01-29T15:50:37.774Z,4.40
2023-01-29T15:53:10.376Z,4.40
2023-01-29T15:55:40.363Z,4.40
2023-01-29T15:58:16.771Z,4.30
2023-01-29T16:00:51.263Z,4.30
2023-01-29T16:03:23.384Z,4.30
2023-01-29T16:05:53.091Z,4.30
2023-01-29T16:08:24.992Z,4.20
2023-01-29T16:10:58.216Z,4.20
2023-01-29T16:13:28.684Z,4.20
2023-01-29T16:15:59.441Z,4.20
2023-01-29T16:18:31.663Z,4.20
2023-01-29T16:21:03.061Z,4.20
2023-01-29T16:23:37.985Z,4.20
2023-01-29T16:26:09.417Z,4.20
2023-01-29T16:28:42.303Z,4.20
2023-01-29T16:31:12.405Z,4.20
2023-01-29T16:33:43.261Z,4.10
2023-01-29T16:36:17.905Z,4.10
2023-01-29T16:38:52.067Z,4.10
2023-01-29T16:41:31.411Z,4.10
2023-01-29T16:44:02.019Z,4.10
2023-01-29T16:46:36.225Z,4.00
2023-01-29T16:49:54.262Z,4.10
2023-01-29T16:52:26.607Z,4.10
2023-01-29T16:55:01.466Z,4.00
2023-01-29T16:57:33.132Z,4.00
2023-01-29T17:00:04.047Z,4.00
2023-01-29T17:02:37.928Z,3.90
2023-01-29T17:05:10.854Z,3.90
2023-01-29T17:07:39.830Z,3.90
2023-01-29T17:10:17.813Z,3.80
2023-01-29T17:12:56.519Z,3.80
2023-01-29T17:15:34.721Z,3.80
2023-01-29T17:18:04.028Z,3.70
2023-01-29T17:20:33.260Z,3.80
2023-01-29T17:23:02.024Z,3.70
2023-01-29T17:25:32.156Z,3.70
2023-01-29T17:28:02.654Z,3.70
2023-01-29T17:30:34.854Z,3.70
2023-01-29T17:33:10.166Z,3.70
2023-01-29T17:35:39.246Z,3.70
2023-01-29T17:38:24.151Z,3.70
2023-01-29T17:40:58.854Z,3.70
2023-01-29T17:43:27.652Z,3.70
2023-01-29T17:45:56.505Z,3.70
2023-01-29T17:48:26.907Z,3.60
2023-01-29T17:50:57.768Z,3.60
2023-01-29T17:53:43.364Z,3.70
2023-01-29T17:56:18.729Z,3.70
2023-01-29T17:58:47.524Z,3.60
2023-01-29T18:01:16.452Z,3.60
2023-01-29T18:03:45.150Z,3.60
2023-01-29T18:06:27.309Z,3.70
2023-01-29T18:08:56.413Z,3.60
2023-01-29T18:11:26.816Z,3.70
2023-01-29T18:13:56.346Z,3.70
2023-01-29T18:16:26.389Z,3.70
2023-01-29T18:18:55.366Z,3.70
2023-01-29T18:21:24.179Z,3.70
2023-01-29T18:23:53.100Z,3.70
2023-01-29T18:26:22.946Z,3.80
2023-01-29T18:28:53.158Z,3.80
2023-01-29T18:31:23.786Z,3.80
2023-01-29T18:33:53.253Z,3.80
2023-01-29T18:36:24.063Z,3.80
2023-01-29T18:38:53.057Z,3.80
2023-01-29T18:41:21.917Z,3.80
2023-01-29T18:43:53.169Z,3.80
2023-01-29T18:46:26.588Z,3.80
2023-01-29T18:48:55.527Z,3.80
2023-01-29T18:51:24.496Z,3.90
2023-01-29T18:53:57.527Z,3.90
2023-01-29T18:56:26.351Z,3.90
2023-01-29T18:58:58.741Z,3.90
2023-01-29T19:01:28.109Z,3.90
2023-01-29T19:04:02.214Z,3.90
2023-01-29T19:06:32.212Z,3.90
2023-01-29T19:09:00.973Z,3.90
2023-01-29T19:11:29.975Z,3.90
2023-01-29T19:14:00.150Z,3.90
2023-01-29T19:16:28.937Z,3.90
2023-01-29T19:18:59.151Z,3.90
2023-01-29T19:21:28.651Z,4.00
2023-01-29T19:23:58.099Z,4.00
2023-01-29T19:26:26.929Z,4.00
2023-01-29T19:28:56.548Z,4.00
2023-01-29T19:31:27.010Z,4.00
2023-01-29T19:33:58.085Z,4.00
2023-01-29T19:36:27.963Z,4.00
2023-01-29T19:38:57.030Z,4.00
2023-01-29T19:41:26.164Z,4.00
2023-01-29T19:43:55.252Z,4.00
2023-01-29T19:46:24.097Z,4.00
2023-01-29T19:48:58.749Z,4.00
2023-01-29T19:51:29.188Z,4.00
2023-01-29T19:54:00.081Z,4.10
2023-01-29T19:56:28.948Z,4.10
2023-01-29T19:59:00.464Z,4.10
2023-01-29T20:01:29.633Z,4.10
2023-01-29T20:03:59.995Z,4.10
2023-01-29T20:06:31.976Z,4.10
2023-01-29T20:09:02.836Z,4.10
2023-01-29T20:11:32.646Z,4.20
2023-01-29T20:14:01.643Z,4.20
2023-01-29T20:16:34.917Z,4.20
2023-01-29T20:19:14.431Z,4.20
2023-01-29T20:21:45.913Z,4.20
2023-01-29T20:24:15.020Z,4.20
2023-01-29T20:26:46.280Z,4.20
2023-01-29T20:29:22.282Z,4.30
2023-01-29T20:31:51.298Z,4.30
2023-01-29T20:34:21.542Z,4.30
2023-01-29T20:36:50.410Z,4.30
2023-01-29T20:39:21.663Z,4.30
2023-01-29T20:41:52.603Z,4.30
2023-01-29T20:44:21.608Z,4.40
2023-01-29T20:46:50.437Z,4.40
2023-01-29T20:49:24.209Z,4.30
2023-01-29T20:51:53.149Z,4.40
2023-01-29T20:54:23.816Z,4.40
2023-01-29T20:56:52.695Z,4.40
2023-01-29T20:59:22.293Z,4.40
2023-01-29T21:01:54.771Z,4.40
2023-01-29T21:04:31.542Z,4.40
2023-01-29T21:07:00.391Z,4.40
2023-01-29T21:09:29.367Z,4.40
2023-01-29T21:11:58.148Z,4.40
2023-01-29T21:14:26.923Z,4.40
2023-01-29T21:16:56.296Z,4.50
2023-01-29T21:19:30.977Z,4.50
2023-01-29T21:21:59.809Z,4.50
2023-01-29T21:24:33.361Z,4.50
2023-01-29T21:27:04.574Z,4.60
2023-01-29T21:29:33.366Z,4.60
2023-01-29T21:32:02.175Z,4.60
2023-01-29T21:34:35.335Z,4.60
2023-01-29T21:37:04.259Z,4.70
2023-01-29T21:39:33.033Z,4.60
2023-01-29T21:42:19.733Z,4.70
2023-01-29T21:44:48.438Z,4.70
2023-01-29T21:47:17.249Z,4.70
2023-01-29T21:49:50.014Z,4.70
2023-01-29T21:52:18.788Z,4.70
2023-01-29T21:54:49.239Z,4.70
2023-01-29T21:57:18.231Z,4.70
2023-01-29T21:59:47.555Z,4.70
2023-01-29T22:02:22.907Z,4.70
2023-01-29T22:05:05.313Z,4.70
2023-01-29T22:07:45.558Z,4.70
2023-01-29T22:10:14.698Z,4.70
2023-01-29T22:12:44.676Z,4.70
2023-01-29T22:15:14.277Z,4.70
2023-01-29T22:17:43.878Z,4.80
2023-01-29T22:20:16.172Z,4.80
2023-01-29T22:22:45.190Z,4.80
2023-01-29T22:25:13.975Z,4.90
2023-01-29T22:27:42.714Z,4.80
2023-01-29T22:30:14.869Z,4.90
2023-01-29T22:32:43.826Z,4.90
2023-01-29T22:35:13.997Z,4.90
2023-01-29T22:37:42.940Z,4.90
2023-01-29T22:40:13.032Z,4.90
2023-01-29T22:42:43.026Z,4.90
2023-01-29T22:45:12.721Z,5.00
2023-01-29T22:47:41.669Z,4.90
2023-01-29T22:50:11.974Z,5.00
2023-01-29T22:52:43.317Z,5.00
2023-01-29T22:55:13.417Z,5.00
2023-01-29T22:57:44.921Z,5.00
2023-01-29T23:00:14.590Z,5.00
2023-01-29T23:02:43.478Z,5.00
2023-01-29T23:05:12.233Z,5.00
2023-01-29T23:07:42.350Z,5.00
2023-01-29T23:10:12.787Z,5.00
2023-01-29T23:12:41.633Z,5.10
2023-01-29T23:15:11.367Z,5.10
2023-01-29T23:17:40.805Z,5.10
2023-01-29T23:20:11.275Z,5.10
2023-01-29T23:22:41.562Z,5.10
2023-01-29T23:25:11.259Z,5.10
2023-01-29T23:27:39.355Z,5.20
2023-01-29T23:30:17.176Z,5.20
2023-01-29T23:32:46.251Z,5.20
2023-01-29T23:35:15.060Z,5.20
2023-01-29T23:37:45.316Z,5.20
2023-01-29T23:40:15.014Z,5.20
2023-01-29T23:42:43.754Z,5.20
2023-01-29T23:45:12.863Z,5.20
2023-01-29T23:47:41.738Z,5.20
2023-01-29T23:50:13.635Z,5.30
2023-01-29T23:52:42.636Z,5.30
2023-01-29T23:55:14.201Z,5.30
2023-01-29T23:57:42.974Z,5.30
